Time;durP1;ratioP1;P1;durP2;ratioP2;P2;SDS_P1;SDS_P2;PMS_P1;PMS_P2;Temp;Humidity;BMP_temperature;BMP_pressure;BME280_temperature;BME280_humidity;BME280_pressure;Samples;Min_cycle;Max_cycle;Signal;HPM_P1;HPM_P2
2023/06/06 00:00:10;;;;;;;2.75;0.90;;;;;;;21.95;42.57;99262.97;5051155;28;20033;-69
2023/06/06 00:02:43;;;;;;;2.95;0.80;;;;;;;21.93;42.62;99257.03;5051097;28;20036;-70
2023/06/06 00:05:11;;;;;;;2.67;0.70;;;;;;;21.93;42.87;99252.53;5052550;28;20075;-69
2023/06/06 00:07:38;;;;;;;4.18;1.02;;;;;;;21.89;42.74;99248.59;5034974;28;20132;-69
2023/06/06 00:10:03;;;;;;;3.63;1.00;;;;;;;21.93;42.73;99259.69;5034417;28;20032;-69
2023/06/06 00:12:32;;;;;;;2.10;1.00;;;;;;;21.92;43.15;99252.69;5050989;28;20515;-69
2023/06/06 00:14:59;;;;;;;3.50;0.90;;;;;;;21.92;43.05;99252.69;5051588;28;20369;-69
2023/06/06 00:17:25;;;;;;;2.20;0.80;;;;;;;21.88;42.91;99246.09;5034342;28;20033;-69
2023/06/06 00:19:52;;;;;;;3.70;1.00;;;;;;;21.89;42.81;99248.59;5050981;28;20558;-69
2023/06/06 00:22:22;;;;;;;3.00;0.85;;;;;;;21.85;43.05;99245.47;5050726;28;20067;-69
2023/06/06 00:24:48;;;;;;;3.20;0.93;;;;;;;21.86;43.05;99249.75;5035058;28;20025;-69
2023/06/06 00:27:14;;;;;;;3.40;0.95;;;;;;;21.84;43.41;99248.31;5050679;28;20136;-69
2023/06/06 00:29:39;;;;;;;7.65;0.82;;;;;;;21.80;43.36;99242.50;5051053;28;20107;-70
2023/06/06 00:32:05;;;;;;;4.53;0.90;;;;;;;21.80;43.60;99237.19;5018315;28;20048;-69
2023/06/06 00:34:30;;;;;;;2.75;0.98;;;;;;;21.78;43.32;99239.19;5054287;28;20476;-69
2023/06/06 00:36:56;;;;;;;2.08;0.85;;;;;;;21.74;43.63;99234.41;5021724;28;20039;-70
2023/06/06 00:39:21;;;;;;;4.38;1.00;;;;;;;21.72;43.75;99239.09;5021434;28;20416;-70
2023/06/06 00:41:48;;;;;;;6.32;0.90;;;;;;;21.73;43.48;99248.69;5038116;28;20091;-70
2023/06/06 00:44:14;;;;;;;3.08;1.08;;;;;;;21.67;43.71;99234.28;5054723;28;20087;-70
2023/06/06 00:46:39;;;;;;;3.40;1.00;;;;;;;21.68;43.58;99244.75;5021528;28;20029;-70
2023/06/06 00:49:05;;;;;;;3.60;1.02;;;;;;;21.67;43.94;99244.91;5037730;28;20056;-70
2023/06/06 00:51:30;;;;;;;2.30;0.77;;;;;;;21.63;43.81;99239.16;5037825;28;20413;-72
2023/06/06 00:53:56;;;;;;;3.72;0.90;;;;;;;21.65;43.75;99241.63;5037917;28;20024;-70
2023/06/06 00:56:22;;;;;;;1.80;0.80;;;;;;;21.63;43.99;99239.16;5037698;28;20037;-71
2023/06/06 00:58:47;;;;;;;4.45;1.05;;;;;;;21.63;43.98;99236.50;5020886;28;20427;-71
2023/06/06 01:01:13;;;;;;;2.80;1.10;;;;;;;21.63;44.19;99236.50;5054074;28;20025;-70
2023/06/06 01:03:40;;;;;;;2.88;0.70;;;;;;;21.61;43.86;99221.72;5021412;28;20041;-71
2023/06/06 01:06:08;;;;;;;2.08;0.82;;;;;;;21.62;44.20;99234.81;5037758;28;20072;-71
2023/06/06 01:08:35;;;;;;;3.42;1.00;;;;;;;21.62;44.20;99234.00;5054048;28;20032;-70
2023/06/06 01:11:06;;;;;;;2.13;0.80;;;;;;;21.60;43.78;99236.84;5053919;28;20064;-71
2023/06/06 01:13:57;;;;;;;2.45;0.90;;;;;;;21.60;44.12;99234.19;5037709;28;20040;-71
2023/06/06 01:16:23;;;;;;;2.33;0.90;;;;;;;21.58;43.91;99238.81;5037435;28;20035;-71
2023/06/06 01:18:48;;;;;;;3.42;0.95;;;;;;;21.56;44.16;99232.88;5021028;28;20041;-70
2023/06/06 01:21:15;;;;;;;2.92;0.80;;;;;;;21.54;44.25;99234.88;5037473;28;20033;-70
2023/06/06 01:23:43;;;;;;;4.10;1.20;;;;;;;21.48;43.99;99225.78;5037607;28;20029;-71
2023/06/06 01:26:08;;;;;;;2.75;0.98;;;;;;;21.49;44.40;99230.09;5021921;28;20033;-70
2023/06/06 01:28:34;;;;;;;2.38;0.90;;;;;;;21.43;44.28;99220.13;5052435;28;20068;-71
2023/06/06 01:30:59;;;;;;;4.25;1.10;;;;;;;21.45;44.13;99231.41;5019506;28;20083;-70
2023/06/06 01:33:43;;;;;;;3.13;0.80;;;;;;;21.43;44.35;99236.06;5036338;28;20098;-71
2023/06/06 01:36:20;;;;;;;2.40;1.10;;;;;;;21.41;44.57;99238.09;5036023;28;20120;-70
2023/06/06 01:38:53;;;;;;;4.75;1.10;;;;;;;21.35;44.64;99237.94;5054179;28;20527;-70
2023/06/06 01:41:20;;;;;;;2.75;0.93;;;;;;;21.36;44.61;99242.25;5036406;28;20037;-70
2023/06/06 01:43:46;;;;;;;3.08;0.93;;;;;;;21.32;44.53;99236.47;5036149;28;20094;-70
2023/06/06 01:46:11;;;;;;;2.95;1.17;;;;;;;21.29;44.99;99239.47;5035621;28;20076;-70
2023/06/06 01:48:36;;;;;;;5.80;1.02;;;;;;;21.29;44.86;99234.16;5035916;28;20034;-70
2023/06/06 01:51:02;;;;;;;2.15;0.90;;;;;;;21.28;44.91;99235.16;5035845;28;20037;-70
2023/06/06 01:53:27;;;;;;;2.67;0.90;;;;;;;21.27;44.75;99234.34;5035554;28;20435;-70
2023/06/06 01:55:53;;;;;;;3.40;0.90;;;;;;;21.28;44.77;99237.81;5053288;28;20029;-70
2023/06/06 01:58:19;;;;;;;2.33;0.85;;;;;;;21.29;44.58;99240.28;5035450;28;20040;-70
2023/06/06 02:00:45;;;;;;;3.58;0.90;;;;;;;21.26;44.91;99235.31;5035618;28;20037;-70
2023/06/06 02:03:11;;;;;;;1.95;1.02;;;;;;;21.24;44.75;99234.69;5051931;28;20055;-70
2023/06/06 02:05:37;;;;;;;2.70;1.02;;;;;;;21.24;44.61;99239.19;5053047;28;20033;-71
2023/06/06 02:08:03;;;;;;;3.65;1.05;;;;;;;21.22;44.83;99243.81;5053516;28;20021;-70
2023/06/06 02:10:28;;;;;;;6.22;1.13;;;;;;;21.15;44.90;99235.72;5035603;28;20503;-70
2023/06/06 02:12:54;;;;;;;1.40;0.77;;;;;;;21.17;44.94;99249.63;5035362;28;20045;-70
2023/06/06 02:15:21;;;;;;;1.58;0.73;;;;;;;21.10;44.98;99232.75;5034991;28;20497;-70
2023/06/06 02:17:46;;;;;;;2.85;0.85;;;;;;;21.09;44.96;99241.72;5051942;28;20438;-70
2023/06/06 02:20:12;;;;;;;3.83;0.85;;;;;;;21.10;44.99;99249.50;5018580;28;20129;-70
2023/06/06 02:22:38;;;;;;;5.07;0.95;;;;;;;21.06;45.17;99253.53;5034870;28;20079;-70
2023/06/06 02:25:04;;;;;;;1.42;0.73;;;;;;;21.05;45.00;99240.44;5034965;28;20041;-70
2023/06/06 02:27:32;;;;;;;4.38;0.95;;;;;;;21.05;45.02;99246.56;4992732;28;1232597;-70
2023/06/06 02:29:58;;;;;;;1.85;0.80;;;;;;;21.04;45.25;99244.06;5036104;28;20566;-70
2023/06/06 02:32:26;;;;;;;2.20;0.90;;;;;;;21.02;45.14;99246.91;5052680;28;20041;-70
2023/06/06 02:34:51;;;;;;;;;;;;;;;21.02;45.10;99254.03;5037078;28;20033;-70
2023/06/06 02:37:17;;;;;;;2.50;0.82;;;;;;;20.98;45.07;99250.06;5053865;28;19916;-70
2023/06/06 02:39:43;;;;;;;3.00;0.93;;;;;;;20.99;45.09;99254.38;5052377;28;20036;-70
2023/06/06 02:42:08;;;;;;;2.55;0.75;;;;;;;20.98;45.12;99253.53;5036344;28;20033;-70
2023/06/06 02:44:34;;;;;;;6.72;0.80;;;;;;;20.98;45.15;99242.91;5052136;28;20074;-70
2023/06/06 02:46:59;;;;;;;2.65;1.00;;;;;;;21.02;45.03;99249.53;5052265;28;20048;-70
2023/06/06 02:49:27;;;;;;;6.20;0.93;;;;;;;21.07;44.86;99254.34;5036034;28;20036;-70
2023/06/06 02:51:53;;;;;;;3.92;0.85;;;;;;;21.06;44.71;99252.69;5036070;28;20064;-70
2023/06/06 02:54:18;;;;;;;4.82;1.10;;;;;;;21.08;44.58;99256.81;5019422;28;20488;-70
2023/06/06 02:56:44;;;;;;;1.85;0.98;;;;;;;21.14;44.69;99260.59;5051323;28;20036;-70
2023/06/06 02:59:09;;;;;;;3.20;0.90;;;;;;;21.28;44.32;99267.00;5019035;28;20025;-70
2023/06/06 03:01:35;;;;;;;1.55;0.80;;;;;;;21.60;43.63;99257.25;5052450;28;20056;-70
2023/06/06 03:04:01;;;;;;;3.70;0.88;;;;;;;22.02;42.52;99263.94;5035532;28;20185;-70
2023/06/06 03:06:28;;;;;;;4.13;0.75;;;;;;;22.41;41.61;99265.63;5052078;28;20025;-70
2023/06/06 03:08:57;;;;;;;1.48;0.70;;;;;;;22.83;40.75;99260.72;5019409;28;20033;-70
2023/06/06 03:11:25;;;;;;;6.53;1.50;;;;;;;23.26;39.85;99256.41;5052014;28;20099;-70
2023/06/06 03:13:51;;;;;;;4.22;1.00;;;;;;;23.71;38.94;99258.94;5052085;28;20044;-70
2023/06/06 03:16:17;;;;;;;1.70;0.90;;;;;;;24.18;38.06;99256.72;5036273;28;20033;-70
2023/06/06 03:18:46;;;;;;;2.08;0.80;;;;;;;24.69;37.10;99264.50;5053204;28;20032;-70
2023/06/06 03:21:12;;;;;;;2.17;0.80;;;;;;;25.14;36.07;99258.78;5035883;28;20052;-70
2023/06/06 03:23:38;;;;;;;1.20;0.70;;;;;;;25.55;35.43;99271.28;5052039;28;20473;-70
2023/06/06 03:26:04;;;;;;;1.60;0.60;;;;;;;25.95;34.17;99260.69;5050932;28;20444;-70
2023/06/06 03:28:31;;;;;;;2.65;0.75;;;;;;;26.36;33.80;99258.84;5052540;28;20056;-70
2023/06/06 03:30:57;;;;;;;2.50;0.85;;;;;;;26.88;32.57;99267.00;5035315;28;20099;-70
2023/06/06 03:33:22;;;;;;;2.15;0.90;;;;;;;27.33;32.18;99255.56;5034890;28;20041;-70
2023/06/06 03:35:48;;;;;;;5.10;0.93;;;;;;;27.71;31.48;99252.06;5051790;28;20456;-70
2023/06/06 03:38:13;;;;;;;2.17;0.90;;;;;;;28.17;30.53;99252.78;5034434;28;20044;-70
2023/06/06 03:40:39;;;;;;;1.90;0.80;;;;;;;28.57;29.91;99255.91;5051047;28;20040;-70
2023/06/06 03:43:05;;;;;;;2.17;0.98;;;;;;;28.98;29.10;99248.25;5051314;28;20051;-70
2023/06/06 03:45:30;;;;;;;1.92;0.60;;;;;;;29.39;28.30;99244.84;5052280;28;20266;-70
2023/06/06 03:47:55;;;;;;;2.70;0.90;;;;;;;29.84;28.89;99243.66;5050851;28;20036;-71
2023/06/06 03:50:21;;;;;;;4.57;0.85;;;;;;;30.25;28.85;99252.72;5052763;28;20037;-73
2023/06/06 03:52:47;;;;;;;29.92;1.33;;;;;;;30.66;28.36;99248.28;5018091;28;20098;-71
2023/06/06 03:55:13;;;;;;;24.83;1.58;;;;;;;31.02;28.02;99243.63;5051089;28;20031;-71
2023/06/06 03:57:38;;;;;;;16.40;1.20;;;;;;;31.33;27.62;99235.34;5051020;28;20033;-74
2023/06/06 04:00:10;;;;;;;10.35;1.30;;;;;;;31.64;26.72;99235.91;5034017;28;20474;-69
2023/06/06 04:02:36;;;;;;;11.40;1.50;;;;;;;32.01;26.17;99243.56;5035609;28;20021;-70
2023/06/06 04:05:02;;;;;;;11.13;6.25;;;;;;;32.22;25.80;99242.84;5034436;28;20071;-69
2023/06/06 04:07:28;;;;;;;26.90;12.45;;;;;;;32.49;25.71;99235.94;5050835;28;20041;-72
2023/06/06 04:09:57;;;;;;;12.10;8.00;;;;;;;33.10;25.06;99227.78;5034403;28;20121;-71
2023/06/06 04:12:22;;;;;;;14.18;7.88;;;;;;;33.37;24.46;99227.84;5052253;28;20035;-70
2023/06/06 04:14:48;;;;;;;8.90;5.88;;;;;;;33.18;23.85;99230.91;5017843;28;20025;-70
2023/06/06 04:17:13;;;;;;;11.65;5.90;;;;;;;33.24;23.50;99242.59;5050592;28;20025;-70
2023/06/06 04:19:39;;;;;;;8.15;3.70;;;;;;;33.61;23.82;99231.06;5033689;28;20037;-72
2023/06/06 04:22:05;;;;;;;9.18;3.80;;;;;;;33.67;23.38;99230.03;5051228;28;20079;-76
2023/06/06 04:24:31;;;;;;;5.40;2.45;;;;;;;33.96;22.32;99235.16;5052236;28;20107;-76
2023/06/06 04:26:57;;;;;;;4.10;2.10;;;;;;;34.22;22.14;99238.88;5051858;28;20049;-75
2023/06/06 04:29:23;;;;;;;6.43;1.90;;;;;;;34.57;21.98;99247.50;5050538;28;20459;-75
2023/06/06 04:31:48;;;;;;;8.98;1.95;;;;;;;34.91;21.69;99256.09;5050634;28;20040;-75
2023/06/06 04:34:14;;;;;;;7.95;1.80;;;;;;;35.24;20.86;99254.06;5050602;28;20025;-75
2023/06/06 04:36:40;;;;;;;3.95;1.80;;;;;;;35.57;20.32;99262.84;5051988;28;20515;-75
2023/06/06 04:39:07;;;;;;;5.83;1.97;;;;;;;35.92;20.23;99261.28;5033448;28;20037;-75
2023/06/06 04:41:33;;;;;;;6.55;1.90;;;;;;;36.50;19.62;99258.25;5050517;28;20033;-76
2023/06/06 04:44:01;;;;;;;4.10;1.60;;;;;;;36.61;19.27;99271.78;5034045;28;20032;-76
2023/06/06 04:46:29;;;;;;;4.43;1.65;;;;;;;36.98;18.65;99274.16;5051549;28;20033;-75
2023/06/06 04:48:55;;;;;;;6.93;1.40;;;;;;;37.31;18.11;99271.84;5050192;28;20044;-75
2023/06/06 04:51:22;;;;;;;7.25;1.80;;;;;;;37.65;17.47;99273.78;5017269;28;20049;-75
2023/06/06 04:53:50;;;;;;;10.43;1.42;;;;;;;38.07;17.09;99285.22;5050685;28;20035;-73
2023/06/06 04:56:17;;;;;;;8.93;2.47;;;;;;;38.59;18.50;99277.34;5051458;28;20041;-71
2023/06/06 04:58:45;;;;;;;13.98;2.45;;;;;;;39.22;18.41;99279.09;5033544;28;20493;-71
2023/06/06 05:01:13;;;;;;;15.63;2.17;;;;;;;39.95;17.79;99277.75;5034067;28;20036;-68
2023/06/06 05:03:39;;;;;;;13.77;1.58;;;;;;;40.34;16.40;99281.19;5034070;28;20029;-72
2023/06/06 05:06:05;;;;;;;7.27;1.30;;;;;;;40.69;15.39;99282.47;5050228;28;20463;-72
2023/06/06 05:08:32;;;;;;;10.33;1.40;;;;;;;40.94;15.18;99288.56;5033860;28;20480;-72
2023/06/06 05:10:58;;;;;;;5.50;1.25;;;;;;;41.15;14.94;99288.13;5033724;28;20037;-70
2023/06/06 05:13:24;;;;;;;8.82;1.42;;;;;;;41.39;14.49;99296.13;5050159;28;20124;-71
2023/06/06 05:15:49;;;;;;;4.35;1.52;;;;;;;41.56;14.33;99295.44;5050810;28;20035;-72
2023/06/06 05:18:15;;;;;;;5.28;1.52;;;;;;;41.62;14.33;99290.66;5050055;28;20025;-71
2023/06/06 05:20:41;;;;;;;3.58;1.13;;;;;;;41.78;13.94;99293.88;5036890;28;20471;-71
2023/06/06 05:23:07;;;;;;;4.25;1.30;;;;;;;42.15;13.83;99300.09;5053502;28;20083;-71
2023/06/06 05:25:33;;;;;;;4.75;1.45;;;;;;;42.33;13.48;99310.03;5037556;28;20507;-71
2023/06/06 05:27:58;;;;;;;5.73;1.57;;;;;;;42.57;13.18;99301.44;5020820;28;20122;-72
2023/06/06 05:30:24;;;;;;;3.83;1.30;;;;;;;42.72;13.19;99293.94;5020634;28;20051;-72
2023/06/06 05:32:50;;;;;;;5.53;1.10;;;;;;;42.81;12.91;99298.31;5036879;28;20083;-72
2023/06/06 05:35:16;;;;;;;8.70;1.48;;;;;;;42.94;12.85;99288.34;5054486;28;20028;-71
2023/06/06 05:37:42;;;;;;;7.60;1.40;;;;;;;42.87;12.85;99298.16;5036929;28;20486;-71
2023/06/06 05:40:09;;;;;;;10.83;2.83;;;;;;;42.84;12.90;99289.44;5054485;28;20037;-72
2023/06/06 05:42:35;;;;;;;9.95;1.70;;;;;;;42.88;12.91;99289.63;5037217;28;20061;-76
2023/06/06 05:45:01;;;;;;;8.05;1.60;;;;;;;43.00;12.89;99294.50;5037037;28;20061;-72
2023/06/06 05:47:26;;;;;;;3.10;1.30;;;;;;;42.97;12.84;99300.66;5053392;28;20037;-72
2023/06/06 05:49:52;;;;;;;8.53;1.10;;;;;;;42.94;12.80;99293.03;5036696;28;20420;-72
2023/06/06 05:52:17;;;;;;;2.63;0.90;;;;;;;42.94;12.90;99291.09;5053693;28;20032;-71
2023/06/06 05:54:43;;;;;;;8.00;1.10;;;;;;;43.05;13.42;99291.63;5053465;28;20128;-70
2023/06/06 05:57:22;;;;;;;8.00;1.40;;;;;;;42.93;14.71;99299.63;5053228;28;20045;-71
2023/06/06 05:59:47;;;;;;;8.35;1.30;;;;;;;42.80;14.96;99285.72;5020014;28;20045;-70
2023/06/06 06:02:14;;;;;;;5.23;1.30;;;;;;;42.78;14.59;99292.63;5036773;28;20079;-73
2023/06/06 06:04:42;;;;;;;6.22;1.10;;;;;;;42.74;14.40;99295.22;5051251;28;20522;-69
2023/06/06 06:07:08;;;;;;;5.22;1.50;;;;;;;42.64;14.42;99293.59;5035481;28;20044;-70
2023/06/06 06:09:34;;;;;;;5.00;1.20;;;;;;;42.69;14.62;99289.09;5059108;28;20044;-69
2023/06/06 06:12:00;;;;;;;2.43;1.00;;;;;;;42.57;14.31;99282.25;5033552;28;20115;-71
2023/06/06 06:14:25;;;;;;;3.93;1.20;;;;;;;42.53;14.68;99296.91;5021454;28;20443;-70
2023/06/06 06:16:51;;;;;;;4.60;1.10;;;;;;;42.45;14.44;99295.75;5053477;28;20036;-71
2023/06/06 06:19:16;;;;;;;6.30;1.03;;;;;;;42.33;14.39;99295.53;5018787;28;20043;-70
2023/06/06 06:21:42;;;;;;;3.27;1.00;;;;;;;42.29;14.78;99293.41;5051904;28;20090;-70
2023/06/06 06:24:07;;;;;;;4.70;1.20;;;;;;;42.23;14.66;99297.41;5051868;28;20021;-70
2023/06/06 06:26:33;;;;;;;5.27;1.20;;;;;;;42.05;14.70;99287.44;5051786;28;20122;-69
2023/06/06 06:28:58;;;;;;;4.93;1.20;;;;;;;42.02;14.54;99299.03;5035947;28;20033;-74
2023/06/06 06:31:24;;;;;;;5.00;1.27;;;;;;;41.88;14.59;99299.91;5033962;28;20110;-70
2023/06/06 06:33:50;;;;;;;7.25;1.27;;;;;;;41.81;14.57;99296.78;5035195;28;20060;-71
2023/06/06 06:36:16;;;;;;;5.13;1.00;;;;;;;41.63;14.65;99293.09;5051313;28;20029;-71
2023/06/06 06:38:41;;;;;;;3.28;1.15;;;;;;;41.53;14.93;99299.63;5019032;28;20322;-76
2023/06/06 06:41:07;;;;;;;3.78;1.02;;;;;;;41.45;14.96;99294.06;5018897;28;20498;-75
2023/06/06 06:43:32;;;;;;;4.13;1.00;;;;;;;41.44;15.10;99285.03;5018933;28;20036;-75
2023/06/06 06:45:58;;;;;;;5.00;1.17;;;;;;;41.37;14.98;99282.72;5036030;28;20032;-74
2023/06/06 06:48:23;;;;;;;5.57;1.20;;;;;;;41.27;14.93;99287.59;5019561;28;20098;-74
2023/06/06 06:50:49;;;;;;;3.83;0.90;;;;;;;41.25;15.14;99279.69;5019005;28;20072;-71
2023/06/06 06:53:16;;;;;;;6.70;1.10;;;;;;;41.17;15.30;99280.44;5052197;28;20033;-74
2023/06/06 06:55:44;;;;;;;9.15;1.08;;;;;;;41.11;15.09;99287.13;5035904;28;20040;-74
2023/06/06 06:58:13;;;;;;;14.32;1.58;;;;;;;40.92;16.22;99293.53;5035887;28;20028;-67
2023/06/06 07:00:39;;;;;;;14.02;1.55;;;;;;;40.51;16.76;99286.91;5053479;28;20090;-71
2023/06/06 07:03:05;;;;;;;18.47;1.30;;;;;;;40.31;16.96;99299.03;5052537;28;20036;-68
2023/06/06 07:05:31;;;;;;;4.53;1.17;;;;;;;39.99;16.41;99297.13;5019348;28;20044;-69
2023/06/06 07:07:56;;;;;;;5.95;1.20;;;;;;;39.87;17.27;99294.00;5035432;28;20457;-69
2023/06/06 07:10:23;;;;;;;7.30;1.10;;;;;;;39.87;17.24;99292.09;5052071;28;20033;-72
2023/06/06 07:12:50;;;;;;;5.60;1.25;;;;;;;39.89;17.04;99289.06;5052368;28;20117;-72
2023/06/06 07:15:21;;;;;;;6.80;1.23;;;;;;;39.84;16.85;99286.41;5036543;28;20037;-81
2023/06/06 15:35:29;;;;;;;4.23;1.67;;;;;;;27.68;29.29;98981.63;5997238;23;20042;31
2023/06/06 15:37:55;;;;;;;3.08;1.60;;;;;;;27.69;28.98;98985.94;4911206;29;20079;-72
2023/06/06 15:40:20;;;;;;;3.53;1.98;;;;;;;27.69;28.73;98984.09;4909634;29;20077;-74
2023/06/06 15:42:47;;;;;;;3.53;1.73;;;;;;;27.67;28.42;98986.16;4904533;29;20420;-76
2023/06/06 15:45:12;;;;;;;8.45;1.85;;;;;;;27.64;28.53;98988.47;4902012;29;20036;-74
2023/06/06 15:47:38;;;;;;;6.13;2.03;;;;;;;27.67;28.12;98990.72;4908228;29;20044;-75
2023/06/06 15:50:04;;;;;;;5.40;1.60;;;;;;;27.67;28.07;98990.72;4894687;29;20036;-76
2023/06/06 15:52:29;;;;;;;5.50;2.00;;;;;;;27.62;28.11;98991.38;4898366;29;20077;-74
2023/06/06 15:54:55;;;;;;;7.80;1.55;;;;;;;27.61;27.77;98993.25;4916844;29;20134;-76
2023/06/06 15:57:21;;;;;;;4.75;1.50;;;;;;;27.53;27.61;98981.97;4912032;29;20048;-80
2023/06/06 15:59:46;;;;;;;5.97;1.75;;;;;;;27.56;27.83;98994.94;4912978;29;20486;-78
2023/06/06 16:02:13;;;;;;;7.18;1.77;;;;;;;27.56;27.56;98993.09;4897642;29;20083;-75
2023/06/06 16:04:40;;;;;;;5.57;1.65;;;;;;;27.56;27.79;98997.63;4897786;29;20055;-76
2023/06/06 16:07:07;;;;;;;5.05;2.03;;;;;;;27.53;27.69;98992.69;4897525;29;20082;-79
2023/06/06 16:09:33;;;;;;;3.95;1.70;;;;;;;27.55;27.67;99004.03;4913177;29;20032;-79
2023/06/06 16:11:59;;;;;;;3.25;1.80;;;;;;;27.54;27.84;99007.75;4928792;28;20183;-78
2023/06/06 16:14:25;;;;;;;4.68;1.80;;;;;;;27.48;27.79;98995.22;4897326;29;20127;-78
2023/06/06 16:16:51;;;;;;;3.28;2.00;;;;;;;27.47;27.98;99007.81;4897739;29;20075;-78
2023/06/06 16:19:17;;;;;;;3.72;1.60;;;;;;;27.48;28.36;99011.31;4917899;29;20123;-77
2023/06/06 16:21:43;;;;;;;3.55;1.55;;;;;;;27.44;28.51;99010.94;4931991;28;20521;-76
2023/06/06 16:24:09;;;;;;;6.03;1.92;;;;;;;27.40;28.09;99007.84;4924671;29;20040;-77
2023/06/06 16:26:34;;;;;;;4.90;2.10;;;;;;;27.32;28.46;99010.00;4913064;29;20047;-79
2023/06/06 16:29:00;;;;;;;6.72;1.77;;;;;;;27.28;28.23;99014.97;4912522;29;20039;-77
2023/06/06 16:31:26;;;;;;;7.07;2.00;;;;;;;27.21;28.39;99012.31;4912770;29;20456;-75
2023/06/06 16:33:51;;;;;;;9.63;1.80;;;;;;;27.12;28.48;99021.69;4914133;29;20048;-73
2023/06/06 16:36:18;;;;;;;5.43;1.60;;;;;;;27.06;28.70;99017.19;4903518;29;20064;-76
2023/06/06 16:38:45;;;;;;;7.15;2.13;;;;;;;26.98;28.79;99017.44;4890636;29;20052;-76
2023/06/06 16:41:11;;;;;;;7.25;1.60;;;;;;;26.92;30.16;99023.69;4877732;29;20416;-84
2023/06/06 16:43:37;;;;;;;4.40;1.70;;;;;;;26.80;30.88;99028.91;4916712;29;20045;-88
2023/06/06 16:48:37;;;;;;;7.35;1.90;;;;;;;26.51;31.36;99023.88;4961775;28;20070;-85
2023/06/06 16:51:03;;;;;;;5.85;1.70;;;;;;;26.43;31.14;99024.13;4944617;29;20058;-89
2023/06/06 16:53:30;;;;;;;4.80;1.92;;;;;;;26.31;31.47;99020.47;4961281;28;20051;-89
2023/06/06 16:55:55;;;;;;;5.05;1.80;;;;;;;26.19;32.20;99023.00;4945739;29;20038;-89
2023/06/06 16:58:21;;;;;;;5.03;1.90;;;;;;;26.12;33.77;99030.22;4923666;29;20031;-84
2023/06/06 17:00:48;;;;;;;2.97;1.63;;;;;;;26.12;34.90;99027.56;4935640;29;20458;-88
2023/06/06 17:03:14;;;;;;;8.20;2.07;;;;;;;26.00;34.02;99014.03;4936989;28;20425;-86
2023/06/06 17:05:43;;;;;;;6.88;1.90;;;;;;;25.87;33.83;99024.72;4937852;29;20120;-82
2023/06/06 17:08:09;;;;;;;8.90;2.13;;;;;;;25.75;34.24;99024.53;4936768;28;20112;-85
2023/06/06 17:10:54;;;;;;;8.35;2.25;;;;;;;25.59;34.94;99017.78;4936544;29;20058;-84
2023/06/06 17:13:21;;;;;;;7.43;2.50;;;;;;;25.57;35.74;99017.16;4945500;28;20418;-75
2023/06/06 17:15:46;;;;;;;9.60;3.30;;;;;;;25.55;36.52;99019.22;4921308;29;20073;-77
2023/06/06 17:18:12;;;;;;;14.75;3.55;;;;;;;25.52;37.16;99015.09;4922608;29;20043;-78
2023/06/06 17:20:38;;;;;;;14.07;3.92;;;;;;;25.49;36.97;99010.16;4954289;28;20457;-72
2023/06/06 17:23:04;;;;;;;17.30;3.78;;;;;;;25.54;38.81;99026.44;4922584;28;20069;-76
2023/06/06 17:25:29;;;;;;;11.73;3.20;;;;;;;25.59;39.03;99023.94;4938507;29;20055;-78
2023/06/06 17:27:55;;;;;;;14.02;3.45;;;;;;;25.57;38.56;99023.34;4937440;28;20039;-73
2023/06/06 17:30:20;;;;;;;9.43;2.85;;;;;;;25.57;38.86;99034.03;4938064;29;20102;-74
2023/06/06 17:32:46;;;;;;;11.70;3.05;;;;;;;25.55;38.98;99030.72;4954206;29;20062;-72
2023/06/06 17:35:12;;;;;;;10.75;3.20;;;;;;;25.53;39.11;99032.78;4938299;28;20039;-84
2023/06/06 17:37:38;;;;;;;11.82;3.53;;;;;;;25.50;39.47;99033.19;4954081;28;20039;-80
2023/06/06 17:40:06;;;;;;;17.20;4.18;;;;;;;25.46;39.41;99024.78;4922446;29;20106;-79
2023/06/06 17:42:31;;;;;;;16.02;4.60;;;;;;;25.44;39.88;99023.34;4953488;29;20063;-78
2023/06/06 17:44:59;;;;;;;18.13;5.13;;;;;;;25.41;40.15;99037.94;4947712;28;20045;-76
2023/06/06 17:47:25;;;;;;;16.13;4.75;;;;;;;25.41;39.96;99029.09;4923410;28;20086;-77
2023/06/06 17:49:51;;;;;;;16.70;4.75;;;;;;;25.39;39.84;99029.28;4954139;28;20077;-76
2023/06/06 17:52:16;;;;;;;12.60;4.32;;;;;;;25.40;39.70;99032.81;4934671;29;20047;-75
2023/06/06 17:54:42;;;;;;;13.52;4.32;;;;;;;25.36;40.26;99032.38;4954253;28;20047;-76
2023/06/06 17:57:07;;;;;;;12.57;3.97;;;;;;;25.33;40.67;99026.63;4921855;29;20565;-76
2023/06/06 17:59:33;;;;;;;19.00;5.05;;;;;;;25.35;41.56;99033.44;4953974;28;20039;-87
2023/06/06 18:01:58;;;;;;;25.58;4.60;;;;;;;25.34;45.48;99045.13;4922000;29;20561;-81
2023/06/06 18:04:24;;;;;;;30.75;4.35;;;;;;;25.28;44.12;99045.94;4953461;28;20055;-82
2023/06/06 18:06:49;;;;;;;17.08;4.53;;;;;;;25.26;43.69;99047.97;4919660;29;20434;-81
2023/06/06 18:09:15;;;;;;;17.40;3.92;;;;;;;25.23;43.74;99051.88;4934120;28;20422;-83
2023/06/06 18:11:42;;;;;;;17.42;4.22;;;;;;;25.17;43.59;99049.19;4950303;29;20067;-82
2023/06/06 18:14:08;;;;;;;14.13;3.88;;;;;;;25.14;43.32;99061.09;4950545;28;20178;-82
2023/06/06 18:16:34;;;;;;;16.85;3.80;;;;;;;25.12;42.89;99057.00;4957248;28;20121;-82
2023/06/06 18:19:00;;;;;;;10.73;3.28;;;;;;;25.06;42.50;99047.94;4972423;28;20031;-85
2023/06/06 18:21:28;;;;;;;20.63;4.72;;;;;;;25.02;42.70;99054.75;4957064;28;20038;-80
2023/06/06 18:23:54;;;;;;;13.73;4.10;;;;;;;24.91;43.52;99059.63;4959826;28;20035;-84
2023/06/06 18:26:21;;;;;;;12.68;5.13;;;;;;;24.79;43.05;99063.91;4975278;28;20050;-86
2023/06/06 18:28:48;;;;;;;18.63;6.65;;;;;;;24.67;42.94;99061.03;4976924;28;20027;-86
2023/06/06 18:31:14;;;;;;;14.00;6.45;;;;;;;24.59;43.08;99066.53;4974432;28;20078;-86
2023/06/06 18:33:39;;;;;;;15.00;6.47;;;;;;;24.47;43.01;99065.44;4977842;28;20042;-85
2023/06/06 18:36:06;;;;;;;10.95;6.15;;;;;;;24.42;43.04;99070.56;4957187;28;20130;-87
2023/06/06 18:38:31;;;;;;;18.20;8.40;;;;;;;24.35;43.04;99074.00;4942211;29;20059;-87
2023/06/06 18:41:06;;;;;;;17.75;8.85;;;;;;;24.28;42.99;99073.16;4939671;29;20043;-88
2023/06/06 18:43:32;;;;;;;17.70;9.23;;;;;;;24.23;42.84;99078.25;4958596;28;20071;-86
2023/06/06 18:45:58;;;;;;;16.20;8.88;;;;;;;24.14;42.87;99082.91;4925698;29;20051;-88
2023/06/06 18:48:24;;;;;;;16.98;8.55;;;;;;;24.09;42.68;99087.22;4943957;29;20050;-86
2023/06/06 18:50:55;;;;;;;17.88;9.13;;;;;;;24.04;42.53;99087.78;4926526;29;20047;-87
2023/06/06 18:53:22;;;;;;;14.57;8.27;;;;;;;23.99;42.73;99099.03;4940716;29;20122;-87
2023/06/06 18:55:49;;;;;;;14.65;7.90;;;;;;;23.95;42.38;99097.78;4924136;29;20122;-86
2023/06/06 18:58:15;;;;;;;11.75;7.70;;;;;;;23.90;42.41;99100.22;4923611;29;20035;-86
2023/06/06 19:00:40;;;;;;;13.93;7.18;;;;;;;23.86;42.35;99106.13;4940176;28;20047;-87
2023/06/06 19:03:06;;;;;;;16.80;6.25;;;;;;;23.82;42.13;99105.66;4941413;29;20465;-89
2023/06/06 19:05:33;;;;;;;9.00;5.93;;;;;;;23.76;42.05;99115.25;4939313;29;20066;-78
2023/06/06 19:08:28;;;;;;;13.02;7.95;;;;;;;23.70;41.94;99113.34;4941860;29;20474;-88
2023/06/06 19:10:59;;;;;;;12.75;7.47;;;;;;;23.67;41.79;99121.72;4960972;28;20171;-86
2023/06/06 19:13:28;;;;;;;11.30;7.63;;;;;;;23.63;41.76;99128.47;4947377;28;20047;-83
2023/06/06 19:15:53;;;;;;;14.18;8.38;;;;;;;23.55;41.96;99116.09;4947684;28;20039;-88
2023/06/06 19:18:19;;;;;;;13.82;7.55;;;;;;;23.52;41.52;99119.16;4936976;28;20606;-82
2023/06/06 19:20:44;;;;;;;11.85;7.47;;;;;;;23.47;41.69;99121.56;4920252;29;20118;-82
2023/06/06 19:23:11;;;;;;;12.98;7.50;;;;;;;23.48;41.62;99128.53;4921267;28;20039;-84
2023/06/06 19:25:37;;;;;;;12.57;7.75;;;;;;;23.45;41.72;99128.91;4938140;29;20023;-81
2023/06/06 19:28:04;;;;;;;9.80;6.95;;;;;;;23.41;41.55;99127.66;4938711;29;20031;-83
2023/06/06 19:30:30;;;;;;;13.43;7.18;;;;;;;23.39;41.56;99130.53;4938267;29;20023;-82
2023/06/06 19:32:57;;;;;;;13.35;6.53;;;;;;;23.37;41.58;99137.03;4954076;29;20094;-83
2023/06/06 19:35:28;;;;;;;11.05;6.80;;;;;;;23.34;41.52;99132.94;4954102;28;20506;-83
2023/06/06 19:37:53;;;;;;;10.90;6.40;;;;;;;23.34;41.37;99142.75;4954302;28;20039;-81
2023/06/06 19:40:23;;;;;;;8.73;5.43;;;;;;;23.27;41.54;99140.84;4937578;29;20027;-81
2023/06/06 19:42:50;;;;;;;10.95;5.85;;;;;;;23.27;41.35;99135.50;4954069;29;20122;-82
2023/06/06 19:45:17;;;;;;;10.55;7.25;;;;;;;23.24;41.47;99135.06;4922078;29;20034;-81
2023/06/06 19:47:44;;;;;;;13.13;8.10;;;;;;;23.23;41.25;99144.06;4937988;29;20055;-83